Chitose — JD2925 — position and weather

sailwx.info

Track history (hours):
 
Tides and Currents Weather Stations Pressure Air Temp Water Temp Dewpoint Dewpoint Depression Visibility Wind Speed Wind Dir Waves Ship Positions

Chitose

Last reported at 2016-Jun-27 08:23 UTC. Time now 2016-Jun-27 18:42 UTC.
Position N 35°27' E 139°39'.

Length 33 m; draft 3.8 m.

Type: Tug. MMSI: 431000953.

Date/timePositionNaut miles runAvg speedWind from/ knotsBaromVisibWave heightAir tempDewpointWater temp
2016-Jun-27 08:23N 35°27' E 139°39'0 0.0
2016-Jun-27 07:34N 35°27' E 139°39'0 0.0
2016-Jun-27 06:33N 35°27' E 139°39'0 0.0
2016-Jun-27 05:33N 35°27' E 139°39'0 0.0
2016-Jun-27 04:33N 35°27' E 139°39'0 0.0
2016-Jun-27 03:33N 35°27' E 139°39'0 0.0
2016-Jun-27 02:33N 35°27' E 139°39'0 0.0
2016-Jun-27 01:33N 35°27' E 139°39'0 0.0
2016-Jun-27 00:33N 35°27' E 139°39'0 0.0
2016-Jun-26 23:33N 35°27' E 139°39'2 2.2
2016-Jun-26 22:33N 35°28' E 139°41'3 3.0
2016-Jun-26 21:33N 35°26' E 139°44'4 4.4
2016-Jun-26 20:33N 35°27' E 139°39'0 0.0
2016-Jun-26 06:34N 35°27' E 139°39'0 0.0
2016-Jun-26 05:34N 35°27' E 139°39'5 5.1
2016-Jun-26 04:34N 35°28' E 139°45'0 0.1
2016-Jun-26 03:34N 35°28' E 139°45'2 1.7
2016-Jun-26 02:33N 35°27' E 139°45'2 2.4
2016-Jun-26 01:34N 35°27' E 139°42'0 0.0
2016-Jun-26 00:34N 35°27' E 139°42'0 0.0
2016-Jun-25 23:34N 35°27' E 139°42'1 0.9
2016-Jun-25 22:34N 35°26' E 139°42'3 2.5
2016-Jun-25 21:34N 35°27' E 139°39'1 1.2
2016-Jun-25 20:34N 35°29' E 139°39'1 1.3
2016-Jun-25 19:34N 35°27' E 139°39'2 0.2
2016-Jun-25 08:34N 35°27' E 139°41'1 1.3
2016-Jun-25 07:34N 35°27' E 139°42'3 3.1
2016-Jun-25 06:34N 35°27' E 139°39'0 0.0
2016-Jun-25 05:34N 35°27' E 139°39'0 0.0
2016-Jun-25 04:34N 35°27' E 139°39'0 0.0
2016-Jun-25 03:34N 35°27' E 139°39'0 0.0
2016-Jun-25 02:34N 35°27' E 139°39'0 0.0
2016-Jun-25 01:34N 35°27' E 139°39'3 2.7
2016-Jun-25 00:34N 35°27' E 139°42'3 2.7
2016-Jun-24 23:34N 35°27' E 139°39'0 0.0
2016-Jun-24 22:33N 35°27' E 139°39'0 0.0
2016-Jun-24 21:34N 35°27' E 139°39'0 0.0
2016-Jun-24 20:34N 35°27' E 139°39'0 0.0
2016-Jun-24 09:08N 35°27' E 139°39'6 9.7
2016-Jun-24 08:34N 35°30' E 139°45'1 1.2
2016-Jun-24 07:33N 35°31' E 139°46'7 2.3
2016-Jun-24 04:33N 35°27' E 139°39'0 0.0
2016-Jun-24 03:33N 35°27' E 139°39'0 0.0
2016-Jun-24 02:33N 35°27' E 139°39'0 0.0
2016-Jun-24 01:34N 35°27' E 139°39'0 0.0
2016-Jun-24 00:34N 35°27' E 139°39'0 0.0
2016-Jun-23 23:33N 35°27' E 139°39'0 0.0
2016-Jun-23 05:33N 35°27' E 139°39'0 0.0
2016-Jun-23 04:33N 35°27' E 139°39'0 0.0
2016-Jun-23 03:34N 35°27' E 139°39'0 0.0
2016-Jun-23 02:33N 35°27' E 139°39'0 0.0
2016-Jun-23 01:33N 35°27' E 139°39'0 0.0
2016-Jun-23 00:33N 35°27' E 139°39'0 0.0
2016-Jun-22 23:33N 35°27' E 139°39'3 2.8
2016-Jun-22 22:33N 35°28' E 139°42'2 2.5
2016-Jun-22 21:34N 35°27' E 139°44'5 4.8
2016-Jun-22 20:34N 35°27' E 139°39'2 0.2
2016-Jun-22 09:33N 35°27' E 139°41'3 2.8
2016-Jun-22 08:33N 35°26' E 139°44'4 4.4
2016-Jun-22 07:34N 35°27' E 139°39'0 0.0
2016-Jun-22 06:34N 35°27' E 139°39'0 0.0
2016-Jun-22 05:34N 35°27' E 139°39'0 0.1
2016-Jun-22 04:34N 35°27' E 139°39'4 4.2
2016-Jun-22 03:34N 35°24' E 139°41'2 2.0
2016-Jun-22 02:34N 35°25' E 139°38'3 2.7
2016-Jun-22 01:34N 35°23' E 139°41'5 4.9
2016-Jun-22 00:33N 35°27' E 139°39'0 0.0
2016-Jun-21 23:34N 35°27' E 139°39'0 0.0
2016-Jun-21 22:34N 35°27' E 139°39'0 0.0
2016-Jun-20 23:07N 35°27' E 139°39'3 4.8
2016-Jun-20 22:34N 35°25' E 139°41'1 1.1
2016-Jun-20 21:33N 35°25' E 139°42'3 3.0
2016-Jun-20 20:33N 35°27' E 139°39'2 1.5
2016-Jun-20 19:34N 35°26' E 139°41'1 0.7
2016-Jun-20 18:33N 35°27' E 139°42'0 0.0
2016-Jun-20 17:33N 35°27' E 139°42'0 0.0
2016-Jun-20 16:34N 35°27' E 139°42'0 0.0
2016-Jun-20 15:33N 35°27' E 139°42'0 0.0
2016-Jun-20 14:34N 35°27' E 139°42'3 2.8
2016-Jun-20 13:33N 35°29' E 139°44'2 2.1
2016-Jun-20 12:34N 35°27' E 139°45'2 2.3
2016-Jun-20 11:33N 35°29' E 139°44'4 4.4
2016-Jun-20 10:33N 35°27' E 139°39'0 0.0
2016-Jun-20 09:33N 35°27' E 139°39'1 1.0
2016-Jun-20 08:33N 35°27' E 139°41'0 0.4
2016-Jun-20 07:33N 35°27' E 139°41'2 2.2
2016-Jun-20 06:33N 35°27' E 139°39'0 0.0
2016-Jun-20 05:34N 35°27' E 139°39'0 0.0
2016-Jun-20 04:34N 35°27' E 139°39'0 0.0
2016-Jun-20 03:34N 35°27' E 139°39'0 0.0
2016-Jun-20 02:33N 35°27' E 139°39'0 0.0
2016-Jun-20 01:34N 35°27' E 139°39'0 0.0
2016-Jun-20 00:33N 35°27' E 139°39'0 0.0
2016-Jun-19 23:33N 35°27' E 139°39'0 0.0
2016-Jun-19 22:34N 35°27' E 139°39'0 0.0
2016-Jun-19 04:34N 35°27' E 139°39'3 3.1
2016-Jun-19 03:33N 35°28' E 139°43'1 0.6
2016-Jun-19 02:33N 35°28' E 139°42'3 2.6
2016-Jun-19 01:34N 35°25' E 139°41'3 3.2
2016-Jun-19 00:33N 35°28' E 139°43'2 1.9
2016-Jun-18 23:33N 35°27' E 139°41'2 2.1
2016-Jun-18 22:33N 35°27' E 139°39'  
Track history (hours):
 
Tides and Currents Weather Stations Pressure Air Temp Water Temp Dewpoint Dewpoint Depression Visibility Wind Speed Wind Dir Waves Ship Positions

Chitose

Last reported at 2016-Jun-27 08:23 UTC. Time now 2016-Jun-27 18:42 UTC.
Position N 35°27' E 139°39'.

Length 33 m; draft 3.8 m.

Type: Tug. MMSI: 431000953.

Date/timePositionNaut miles runAvg speedWind from/ knotsBaromVisibWave heightAir tempDewpointWater temp
2016-Jun-27 08:23N 35°27' E 139°39'0 0.0
2016-Jun-27 07:34N 35°27' E 139°39'0 0.0
2016-Jun-27 06:33N 35°27' E 139°39'0 0.0
2016-Jun-27 05:33N 35°27' E 139°39'0 0.0
2016-Jun-27 04:33N 35°27' E 139°39'0 0.0
2016-Jun-27 03:33N 35°27' E 139°39'0 0.0
2016-Jun-27 02:33N 35°27' E 139°39'0 0.0
2016-Jun-27 01:33N 35°27' E 139°39'0 0.0
2016-Jun-27 00:33N 35°27' E 139°39'0 0.0
2016-Jun-26 23:33N 35°27' E 139°39'2 2.2
2016-Jun-26 22:33N 35°28' E 139°41'3 3.0
2016-Jun-26 21:33N 35°26' E 139°44'4 4.4
2016-Jun-26 20:33N 35°27' E 139°39'0 0.0
2016-Jun-26 06:34N 35°27' E 139°39'0 0.0
2016-Jun-26 05:34N 35°27' E 139°39'5 5.1
2016-Jun-26 04:34N 35°28' E 139°45'0 0.1
2016-Jun-26 03:34N 35°28' E 139°45'2 1.7
2016-Jun-26 02:33N 35°27' E 139°45'2 2.4
2016-Jun-26 01:34N 35°27' E 139°42'0 0.0
2016-Jun-26 00:34N 35°27' E 139°42'0 0.0
2016-Jun-25 23:34N 35°27' E 139°42'1 0.9
2016-Jun-25 22:34N 35°26' E 139°42'3 2.5
2016-Jun-25 21:34N 35°27' E 139°39'1 1.2
2016-Jun-25 20:34N 35°29' E 139°39'1 1.3
2016-Jun-25 19:34N 35°27' E 139°39'2 0.2
2016-Jun-25 08:34N 35°27' E 139°41'1 1.3
2016-Jun-25 07:34N 35°27' E 139°42'3 3.1
2016-Jun-25 06:34N 35°27' E 139°39'0 0.0
2016-Jun-25 05:34N 35°27' E 139°39'0 0.0
2016-Jun-25 04:34N 35°27' E 139°39'0 0.0
2016-Jun-25 03:34N 35°27' E 139°39'0 0.0
2016-Jun-25 02:34N 35°27' E 139°39'0 0.0
2016-Jun-25 01:34N 35°27' E 139°39'3 2.7
2016-Jun-25 00:34N 35°27' E 139°42'3 2.7
2016-Jun-24 23:34N 35°27' E 139°39'0 0.0
2016-Jun-24 22:33N 35°27' E 139°39'0 0.0
2016-Jun-24 21:34N 35°27' E 139°39'0 0.0
2016-Jun-24 20:34N 35°27' E 139°39'0 0.0
2016-Jun-24 09:08N 35°27' E 139°39'6 9.7
2016-Jun-24 08:34N 35°30' E 139°45'1 1.2
2016-Jun-24 07:33N 35°31' E 139°46'7 2.3
2016-Jun-24 04:33N 35°27' E 139°39'0 0.0
2016-Jun-24 03:33N 35°27' E 139°39'0 0.0
2016-Jun-24 02:33N 35°27' E 139°39'0 0.0
2016-Jun-24 01:34N 35°27' E 139°39'0 0.0
2016-Jun-24 00:34N 35°27' E 139°39'0 0.0
2016-Jun-23 23:33N 35°27' E 139°39'0 0.0
2016-Jun-23 05:33N 35°27' E 139°39'0 0.0
2016-Jun-23 04:33N 35°27' E 139°39'0 0.0
2016-Jun-23 03:34N 35°27' E 139°39'0 0.0
2016-Jun-23 02:33N 35°27' E 139°39'0 0.0
2016-Jun-23 01:33N 35°27' E 139°39'0 0.0
2016-Jun-23 00:33N 35°27' E 139°39'0 0.0
2016-Jun-22 23:33N 35°27' E 139°39'3 2.8
2016-Jun-22 22:33N 35°28' E 139°42'2 2.5
2016-Jun-22 21:34N 35°27' E 139°44'5 4.8
2016-Jun-22 20:34N 35°27' E 139°39'2 0.2
2016-Jun-22 09:33N 35°27' E 139°41'3 2.8
2016-Jun-22 08:33N 35°26' E 139°44'4 4.4
2016-Jun-22 07:34N 35°27' E 139°39'0 0.0
2016-Jun-22 06:34N 35°27' E 139°39'0 0.0
2016-Jun-22 05:34N 35°27' E 139°39'0 0.1
2016-Jun-22 04:34N 35°27' E 139°39'4 4.2
2016-Jun-22 03:34N 35°24' E 139°41'2 2.0
2016-Jun-22 02:34N 35°25' E 139°38'3 2.7
2016-Jun-22 01:34N 35°23' E 139°41'5 4.9
2016-Jun-22 00:33N 35°27' E 139°39'0 0.0
2016-Jun-21 23:34N 35°27' E 139°39'0 0.0
2016-Jun-21 22:34N 35°27' E 139°39'0 0.0
2016-Jun-20 23:07N 35°27' E 139°39'3 4.8
2016-Jun-20 22:34N 35°25' E 139°41'1 1.1
2016-Jun-20 21:33N 35°25' E 139°42'3 3.0
2016-Jun-20 20:33N 35°27' E 139°39'2 1.5
2016-Jun-20 19:34N 35°26' E 139°41'1 0.7
2016-Jun-20 18:33N 35°27' E 139°42'0 0.0
2016-Jun-20 17:33N 35°27' E 139°42'0 0.0
2016-Jun-20 16:34N 35°27' E 139°42'0 0.0
2016-Jun-20 15:33N 35°27' E 139°42'0 0.0
2016-Jun-20 14:34N 35°27' E 139°42'3 2.8
2016-Jun-20 13:33N 35°29' E 139°44'2 2.1
2016-Jun-20 12:34N 35°27' E 139°45'2 2.3
2016-Jun-20 11:33N 35°29' E 139°44'4 4.4
2016-Jun-20 10:33N 35°27' E 139°39'0 0.0
2016-Jun-20 09:33N 35°27' E 139°39'1 1.0
2016-Jun-20 08:33N 35°27' E 139°41'0 0.4
2016-Jun-20 07:33N 35°27' E 139°41'2 2.2
2016-Jun-20 06:33N 35°27' E 139°39'0 0.0
2016-Jun-20 05:34N 35°27' E 139°39'0 0.0
2016-Jun-20 04:34N 35°27' E 139°39'0 0.0
2016-Jun-20 03:34N 35°27' E 139°39'0 0.0
2016-Jun-20 02:33N 35°27' E 139°39'0 0.0
2016-Jun-20 01:34N 35°27' E 139°39'0 0.0
2016-Jun-20 00:33N 35°27' E 139°39'0 0.0
2016-Jun-19 23:33N 35°27' E 139°39'0 0.0
2016-Jun-19 22:34N 35°27' E 139°39'0 0.0
2016-Jun-19 04:34N 35°27' E 139°39'3 3.1
2016-Jun-19 03:33N 35°28' E 139°43'1 0.6
2016-Jun-19 02:33N 35°28' E 139°42'3 2.6
2016-Jun-19 01:34N 35°25' E 139°41'3 3.2
2016-Jun-19 00:33N 35°28' E 139°43'2 1.9
2016-Jun-18 23:33N 35°27' E 139°41'2 2.1
2016-Jun-18 22:33N 35°27' E 139°39'  

Dump ship's entire track history